Time;durP1;ratioP1;P1;durP2;ratioP2;P2;SDS_P1;SDS_P2;PMS_P1;PMS_P2;Temp;Humidity;BMP_temperature;BMP_pressure;BME280_temperature;BME280_humidity;BME280_pressure;Samples;Min_cycle;Max_cycle;Signal;HPM_P1;HPM_P2
2022/08/27 00:02:24;;;;;;;14.75;12.32;;;20.90;99.90;;;;;;5075469;28;20044;-72
2022/08/27 00:04:50;;;;;;;11.68;10.48;;;20.80;99.90;;;;;;5078924;28;20044;-71
2022/08/27 00:07:16;;;;;;;16.25;11.98;;;20.80;99.90;;;;;;5070463;28;20427;-72
2022/08/27 00:09:42;;;;;;;13.25;11.85;;;20.80;99.90;;;;;;5075503;28;20214;-71
2022/08/27 00:12:09;;;;;;;14.32;10.50;;;20.80;99.90;;;;;;5075383;28;20036;-72
2022/08/27 00:14:36;;;;;;;14.00;11.73;;;20.80;99.90;;;;;;5069595;28;20020;-73
2022/08/27 00:17:04;;;;;;;14.35;11.48;;;20.70;99.90;;;;;;5066500;28;20052;-71
2022/08/27 00:19:30;;;;;;;14.02;11.45;;;20.80;99.90;;;;;;5069161;28;20392;-72
2022/08/27 00:21:56;;;;;;;13.45;11.18;;;20.80;99.90;;;;;;5063476;28;20036;-72
2022/08/27 00:24:22;;;;;;;15.57;11.90;;;20.80;99.90;;;;;;5063198;28;20242;-72
2022/08/27 00:26:49;;;;;;;15.45;12.77;;;20.80;99.90;;;;;;5065804;28;20088;-71
2022/08/27 00:29:16;;;;;;;14.82;13.25;;;20.80;99.90;;;;;;5075041;28;20028;-72
2022/08/27 00:31:41;;;;;;;14.77;12.38;;;20.80;99.90;;;;;;5070775;28;20044;-72
2022/08/27 00:34:07;;;;;;;14.20;11.88;;;20.90;99.90;;;;;;5075465;28;20050;-72
2022/08/27 00:36:33;;;;;;;14.57;11.95;;;20.90;99.90;;;;;;5067038;28;20038;-72
2022/08/27 00:38:59;;;;;;;14.30;11.43;;;20.90;99.90;;;;;;5066359;28;20032;-71
2022/08/27 00:41:25;;;;;;;15.73;12.55;;;20.90;99.90;;;;;;5064748;28;20038;-72
2022/08/27 00:43:56;;;;;;;12.32;11.13;;;20.90;99.90;;;;;;5066298;28;20052;-72
2022/08/27 00:46:27;;;;;;;11.30;10.10;;;20.90;99.90;;;;;;5067420;28;20039;-71
2022/08/27 00:48:57;;;;;;;13.80;11.57;;;20.90;99.90;;;;;;5070357;28;20045;-72
2022/08/27 00:51:24;;;;;;;15.32;12.52;;;20.90;99.90;;;;;;5069683;28;20032;-71
2022/08/27 00:53:52;;;;;;;14.40;11.63;;;20.90;99.90;;;;;;5066912;28;20079;-72
2022/08/27 00:56:26;;;;;;;16.80;12.05;;;20.90;99.90;;;;;;5080500;28;20078;-72
2022/08/27 00:58:54;;;;;;;13.38;11.32;;;20.90;99.90;;;;;;5069624;28;20269;-71
2022/08/27 01:01:25;;;;;;;13.68;12.25;;;20.90;99.90;;;;;;5067599;28;20091;-72
2022/08/27 01:03:55;;;;;;;14.55;11.90;;;20.90;99.90;;;;;;5066637;28;20045;-71
2022/08/27 01:06:23;;;;;;;12.65;10.48;;;20.90;99.90;;;;;;5072583;28;20349;-72
2022/08/27 01:08:55;;;;;;;18.10;13.20;;;21.00;99.90;;;;;;5069849;28;20024;-71
2022/08/27 01:11:22;;;;;;;12.77;11.32;;;21.00;99.90;;;;;;5074659;28;20042;-71
2022/08/27 01:13:50;;;;;;;12.73;11.40;;;21.00;99.90;;;;;;5065609;28;20450;-71
2022/08/27 01:16:20;;;;;;;14.45;12.35;;;21.00;99.90;;;;;;5065483;28;20040;-71
2022/08/27 01:18:47;;;;;;;13.68;12.23;;;21.00;99.90;;;;;;5063889;28;20039;-72
2022/08/27 01:21:27;;;;;;;13.57;12.18;;;21.00;99.90;;;;;;5062316;28;20761;-71
2022/08/27 01:24:18;;;;;;;12.90;10.48;;;21.00;99.90;;;;;;5069122;28;20032;-71
2022/08/27 01:26:44;;;;;;;14.38;11.27;;;21.00;99.90;;;;;;5067697;28;20028;-71
2022/08/27 01:29:11;;;;;;;13.05;11.27;;;21.00;99.90;;;;;;5069464;28;20036;-72
2022/08/27 01:31:37;;;;;;;14.02;11.38;;;21.00;99.90;;;;;;5066739;28;20036;-72
2022/08/27 01:34:04;;;;;;;12.90;11.40;;;21.00;99.90;;;;;;5067132;28;20111;-71
2022/08/27 01:36:31;;;;;;;14.15;11.52;;;21.00;99.90;;;;;;5063304;28;20017;-72
2022/08/27 01:38:57;;;;;;;14.13;12.25;;;20.90;99.90;;;;;;5063785;28;20028;-71
2022/08/27 01:41:24;;;;;;;13.13;11.13;;;21.00;99.90;;;;;;5071208;28;20074;-72
2022/08/27 01:43:50;;;;;;;12.93;11.38;;;20.90;99.90;;;;;;5074127;28;20025;-72
2022/08/27 01:46:21;;;;;;;14.93;12.60;;;20.90;99.90;;;;;;5068847;28;20039;-72
2022/08/27 01:48:47;;;;;;;15.27;11.57;;;20.90;99.90;;;;;;5068638;28;20029;-71
2022/08/27 01:51:13;;;;;;;13.70;10.32;;;20.90;99.90;;;;;;5066315;28;20388;-71
2022/08/27 01:53:39;;;;;;;14.25;11.02;;;20.80;99.90;;;;;;5064224;28;20484;-71
2022/08/27 01:56:05;;;;;;;13.23;11.05;;;20.80;99.90;;;;;;5066019;28;20032;-72
2022/08/27 01:58:32;;;;;;;12.68;10.80;;;20.80;99.90;;;;;;5061925;28;20029;-71
2022/08/27 02:01:04;;;;;;;13.00;10.40;;;20.80;99.90;;;;;;5064767;28;20119;-71
2022/08/27 02:03:31;;;;;;;11.48;10.27;;;20.80;99.90;;;;;;5076943;28;20085;-72
2022/08/27 02:05:57;;;;;;;9.73;8.73;;;20.70;99.90;;;;;;5075684;28;20039;-72
2022/08/27 02:08:22;;;;;;;11.50;10.13;;;20.80;99.90;;;;;;5073071;28;20032;-72
2022/08/27 02:10:49;;;;;;;12.18;10.15;;;20.70;99.90;;;;;;5068241;28;20480;-71
2022/08/27 02:13:15;;;;;;;12.68;11.15;;;20.80;99.90;;;;;;5070938;28;20036;-71
2022/08/27 02:15:42;;;;;;;13.30;11.18;;;20.80;99.90;;;;;;5069564;28;20964;-71
2022/08/27 02:18:09;;;;;;;14.20;11.10;;;20.70;99.90;;;;;;5065450;28;20393;-72
2022/08/27 02:20:36;;;;;;;12.27;11.00;;;20.80;99.90;;;;;;5072340;28;20607;-72
2022/08/27 02:23:03;;;;;;;12.55;10.57;;;20.80;99.90;;;;;;5077231;28;20036;-71
2022/08/27 02:25:29;;;;;;;16.58;10.73;;;20.80;99.90;;;;;;5074645;28;20750;-71
2022/08/27 02:27:58;;;;;;;20.33;13.15;;;20.80;99.90;;;;;;5070805;28;20021;-72
2022/08/27 02:30:26;;;;;;;15.15;12.23;;;20.80;99.90;;;;;;5069821;28;20162;-72
2022/08/27 02:32:52;;;;;;;11.55;10.32;;;20.80;99.90;;;;;;5068554;28;20141;-71
2022/08/27 02:35:20;;;;;;;15.32;11.35;;;20.80;99.90;;;;;;5074887;28;20504;-71
2022/08/27 02:37:47;;;;;;;16.15;12.25;;;20.80;99.90;;;;;;5070323;28;20044;-71
2022/08/27 02:40:15;;;;;;;16.00;13.10;;;20.90;99.90;;;;;;5073412;28;20028;-71
2022/08/27 02:42:42;;;;;;;15.80;12.68;;;20.90;99.90;;;;;;5071200;28;20032;-72
2022/08/27 02:45:08;;;;;;;17.75;13.68;;;20.90;99.90;;;;;;5071271;28;20029;-72
2022/08/27 02:47:34;;;;;;;16.40;13.48;;;20.90;99.90;;;;;;5066788;28;20476;-71
2022/08/27 02:50:01;;;;;;;14.85;12.52;;;20.90;99.90;;;;;;5066949;28;20024;-71
2022/08/27 02:52:28;;;;;;;18.23;13.48;;;20.90;99.90;;;;;;5066293;28;20509;-72
2022/08/27 02:54:55;;;;;;;17.23;14.20;;;20.90;99.90;;;;;;5070912;28;20036;-72
2022/08/27 02:57:21;;;;;;;17.25;12.95;;;20.90;99.90;;;;;;5065536;28;20036;-72
2022/08/27 02:59:48;;;;;;;14.00;12.45;;;21.00;99.90;;;;;;5072825;28;20109;-72
2022/08/27 03:02:14;;;;;;;16.10;14.20;;;21.00;99.90;;;;;;5070580;28;20557;-72
2022/08/27 03:04:40;;;;;;;19.85;15.77;;;21.00;99.90;;;;;;5079587;28;20020;-72
2022/08/27 03:07:06;;;;;;;19.33;14.73;;;21.00;99.90;;;;;;5067425;28;20119;-72
2022/08/27 03:09:33;;;;;;;19.08;14.43;;;21.10;99.90;;;;;;5069818;28;20039;-72
2022/08/27 03:12:00;;;;;;;17.15;15.30;;;21.10;99.90;;;;;;5071935;28;20144;-72
2022/08/27 03:14:27;;;;;;;18.38;15.45;;;21.00;99.90;;;;;;5066724;28;20549;-72
2022/08/27 03:16:54;;;;;;;17.17;15.35;;;21.10;99.90;;;;;;5077845;28;20056;-72
2022/08/27 03:19:20;;;;;;;15.98;13.77;;;21.10;99.90;;;;;;5072953;28;20035;-72
2022/08/27 03:21:47;;;;;;;16.60;14.43;;;21.10;99.90;;;;;;5070328;28;20036;-71
2022/08/27 03:24:13;;;;;;;22.60;15.80;;;21.10;99.90;;;;;;5068213;28;20832;-72
2022/08/27 03:26:39;;;;;;;17.60;14.68;;;21.10;99.90;;;;;;5067698;28;20039;-72
2022/08/27 03:29:06;;;;;;;19.70;14.95;;;21.10;99.90;;;;;;5065523;28;20035;-72
2022/08/27 03:31:32;;;;;;;17.95;14.32;;;21.10;99.90;;;;;;5074197;28;20800;-72
2022/08/27 03:34:01;;;;;;;20.08;15.10;;;21.20;99.90;;;;;;5062002;28;20044;-72
2022/08/27 03:36:29;;;;;;;17.42;14.63;;;21.10;99.90;;;;;;5073269;28;20043;-72
2022/08/27 03:38:55;;;;;;;16.63;14.70;;;21.20;99.90;;;;;;5069164;28;20043;-71
2022/08/27 03:41:22;;;;;;;18.33;14.90;;;21.20;99.90;;;;;;5068499;28;20052;-71
2022/08/27 03:43:48;;;;;;;19.40;14.98;;;21.20;99.90;;;;;;5072545;28;20043;-72
2022/08/27 03:46:16;;;;;;;21.60;15.68;;;21.20;99.90;;;;;;5066491;28;20040;-72
2022/08/27 03:48:41;;;;;;;20.15;17.05;;;21.20;99.90;;;;;;5065212;28;20032;-71
2022/08/27 03:51:10;;;;;;;20.02;16.10;;;21.20;99.90;;;;;;5068637;28;20381;-72
2022/08/27 03:53:38;;;;;;;18.75;16.25;;;21.20;99.90;;;;;;5076427;28;20032;-72
2022/08/27 03:56:05;;;;;;;21.30;14.32;;;21.20;99.90;;;;;;5067897;28;20043;-72
2022/08/27 03:58:31;;;;;;;19.95;16.17;;;21.20;99.90;;;;;;5073329;28;20523;-72
2022/08/27 04:00:58;;;;;;;30.10;18.52;;;21.20;99.90;;;;;;5071877;28;20472;-71
2022/08/27 04:03:24;;;;;;;20.40;15.52;;;21.20;99.90;;;;;;5067966;28;20568;-71
2022/08/27 04:05:56;;;;;;;22.23;17.83;;;21.20;99.90;;;;;;5064841;28;20074;-72
2022/08/27 04:08:23;;;;;;;18.02;15.18;;;21.20;99.90;;;;;;5064637;28;20303;-72
2022/08/27 04:10:50;;;;;;;20.15;15.43;;;21.20;99.90;;;;;;5066707;28;20058;-71
2022/08/27 04:13:17;;;;;;;24.10;18.90;;;21.20;99.90;;;;;;5066274;28;20890;-72
2022/08/27 04:15:44;;;;;;;19.38;15.23;;;21.20;99.90;;;;;;5077582;28;20063;-72
2022/08/27 04:18:14;;;;;;;18.30;14.88;;;21.20;99.90;;;;;;5072208;28;20047;-72
2022/08/27 04:20:40;;;;;;;19.63;14.88;;;21.20;99.90;;;;;;5071292;28;20034;-72
2022/08/27 04:23:06;;;;;;;19.27;14.93;;;21.20;99.90;;;;;;5070443;28;20262;-71
2022/08/27 04:25:32;;;;;;;23.45;15.68;;;21.20;99.90;;;;;;5075378;28;20032;-72
2022/08/27 04:27:58;;;;;;;20.55;14.48;;;21.20;99.90;;;;;;5069022;28;20027;-72
2022/08/27 04:30:24;;;;;;;22.13;15.23;;;21.20;99.90;;;;;;5079030;28;20055;-72
2022/08/27 04:32:50;;;;;;;22.20;16.10;;;21.20;99.90;;;;;;5078425;28;20032;-72
2022/08/27 04:35:16;;;;;;;21.45;15.95;;;21.30;99.90;;;;;;5077697;28;20049;-72
2022/08/27 04:37:42;;;;;;;25.48;17.90;;;21.30;99.90;;;;;;5071127;28;20759;-72
2022/08/27 04:40:08;;;;;;;22.25;16.27;;;21.20;99.90;;;;;;5070056;28;20035;-73
2022/08/27 04:42:34;;;;;;;19.42;15.27;;;21.30;99.90;;;;;;5080923;28;20027;-71
2022/08/27 04:45:01;;;;;;;20.02;16.08;;;21.30;99.90;;;;;;5068131;28;20473;-72
2022/08/27 04:47:27;;;;;;;27.42;16.95;;;21.20;99.90;;;;;;5066823;28;20032;-72
2022/08/27 04:49:53;;;;;;;22.92;17.05;;;21.20;99.90;;;;;;5064901;28;20040;-71
2022/08/27 04:52:19;;;;;;;23.52;14.82;;;21.20;99.90;;;;;;5069751;28;20028;-72
2022/08/27 04:54:45;;;;;;;27.75;16.73;;;21.30;99.90;;;;;;5069259;28;20036;-72
2022/08/27 04:57:10;;;;;;;23.25;16.30;;;21.20;99.90;;;;;;5069223;28;20438;-72
2022/08/27 04:59:37;;;;;;;22.75;16.35;;;21.30;99.90;;;;;;5066168;28;20032;-72
2022/08/27 05:02:07;;;;;;;22.42;15.90;;;21.30;99.90;;;;;;5065817;28;20075;-72
2022/08/27 05:04:36;;;;;;;23.30;14.70;;;21.30;99.90;;;;;;5061928;28;20409;-72
2022/08/27 05:07:03;;;;;;;20.58;14.80;;;21.30;99.90;;;;;;5065312;28;20070;-72
2022/08/27 05:09:30;;;;;;;22.75;15.88;;;21.30;99.90;;;;;;5071482;28;20036;-72
2022/08/27 05:11:56;;;;;;;19.48;15.43;;;21.40;99.90;;;;;;5076788;28;20031;-71
2022/08/27 05:14:23;;;;;;;20.65;14.90;;;21.40;99.90;;;;;;5070017;28;20115;-72
2022/08/27 05:16:49;;;;;;;15.25;13.43;;;21.40;99.90;;;;;;5070649;28;20032;-71
2022/08/27 05:19:15;;;;;;;22.38;15.75;;;21.50;99.90;;;;;;5072151;28;20115;-72
2022/08/27 05:21:47;;;;;;;20.15;15.00;;;21.50;99.90;;;;;;5067791;28;20038;-72
2022/08/27 05:24:14;;;;;;;14.77;12.25;;;21.50;99.90;;;;;;5067920;28;20040;-72
2022/08/27 05:26:40;;;;;;;17.90;14.10;;;21.60;99.90;;;;;;5060975;28;20507;-72
2022/08/27 05:29:06;;;;;;;20.45;14.88;;;21.60;99.90;;;;;;5064309;28;20032;-72
2022/08/27 05:31:32;;;;;;;18.70;13.38;;;21.60;99.90;;;;;;5075902;28;20751;-72
2022/08/27 05:33:59;;;;;;;15.85;12.52;;;21.70;99.90;;;;;;5067271;28;20028;-72
2022/08/27 05:36:29;;;;;;;15.77;11.85;;;21.70;99.90;;;;;;5068256;28;20036;-71
2022/08/27 05:38:57;;;;;;;12.90;10.80;;;21.70;99.90;;;;;;5069730;28;20127;-72
2022/08/27 05:41:26;;;;;;;10.75;9.30;;;21.70;99.90;;;;;;5071480;28;20044;-72
2022/08/27 05:43:53;;;;;;;11.32;10.13;;;21.70;99.90;;;;;;5062659;28;20132;-71
2022/08/27 05:46:21;;;;;;;18.25;11.43;;;21.70;99.90;;;;;;5067134;28;20048;-71
2022/08/27 05:48:48;;;;;;;12.43;10.55;;;21.80;99.90;;;;;;5077661;28;20020;-71
2022/08/27 05:51:19;;;;;;;11.27;9.30;;;21.80;99.90;;;;;;5068934;28;20142;-71
2022/08/27 05:53:45;;;;;;;13.05;9.32;;;21.80;99.90;;;;;;5079825;28;20039;-72
2022/08/27 05:56:23;;;;;;;9.82;8.82;;;21.80;99.90;;;;;;5067610;28;20429;-71
2022/08/27 06:01:37;;;;;;;10.73;8.90;;;21.90;99.90;;;;;;5063184;28;20055;-71
2022/08/27 06:04:06;;;;;;;10.07;9.07;;;21.90;99.90;;;;;;5069107;28;20494;-71
2022/08/27 06:06:36;;;;;;;9.57;8.50;;;21.90;99.90;;;;;;5068611;28;20145;-72
2022/08/27 06:09:03;;;;;;;9.45;7.72;;;21.90;99.90;;;;;;5067535;28;20053;-71
2022/08/27 06:11:29;;;;;;;11.60;9.48;;;21.80;99.90;;;;;;5069417;28;20063;-72
2022/08/27 06:13:55;;;;;;;8.75;7.82;;;21.90;99.90;;;;;;5065620;28;20036;-72
2022/08/27 06:16:21;;;;;;;12.00;8.68;;;21.90;99.90;;;;;;5066620;28;20037;-72
2022/08/27 06:18:48;;;;;;;8.75;7.85;;;21.90;99.90;;;;;;5069860;28;20032;-72
2022/08/27 06:21:16;;;;;;;8.48;7.38;;;21.90;99.90;;;;;;5063166;28;20107;-71
2022/08/27 06:23:42;;;;;;;11.32;8.48;;;21.90;99.90;;;;;;5060662;28;20041;-72
2022/08/27 06:26:14;;;;;;;9.93;8.23;;;21.90;99.90;;;;;;5072423;28;20097;-72
2022/08/27 06:28:40;;;;;;;12.07;8.90;;;21.80;99.90;;;;;;5077594;28;20479;-72
2022/08/27 06:31:09;;;;;;;10.23;9.15;;;21.90;99.90;;;;;;5069201;28;20032;-72
2022/08/27 06:33:36;;;;;;;11.38;8.32;;;21.90;99.90;;;;;;5066342;28;20063;-72
2022/08/27 06:36:05;;;;;;;11.52;9.15;;;21.90;99.90;;;;;;5063738;28;20041;-72
2022/08/27 06:38:32;;;;;;;8.63;7.78;;;22.00;99.90;;;;;;5074761;28;20036;-72
2022/08/27 06:40:58;;;;;;;9.80;8.80;;;22.00;99.90;;;;;;5061821;28;20071;-72
2022/08/27 06:43:24;;;;;;;9.48;8.57;;;22.10;99.90;;;;;;5062502;28;20676;-72
2022/08/27 06:45:51;;;;;;;9.82;8.82;;;22.10;99.90;;;;;;5068234;28;20043;-72
2022/08/27 06:48:17;;;;;;;11.07;9.55;;;22.20;99.90;;;;;;5067826;28;20086;-72
2022/08/27 06:50:43;;;;;;;11.80;8.40;;;22.20;99.90;;;;;;5069707;28;20081;-72
2022/08/27 06:53:10;;;;;;;10.02;8.30;;;22.20;99.90;;;;;;5073548;28;20408;-72
2022/08/27 06:55:44;;;;;;;10.90;9.35;;;22.20;99.90;;;;;;5072402;28;20036;-72
2022/08/27 06:58:11;;;;;;;9.77;8.13;;;22.30;99.90;;;;;;5071865;28;20032;-71
2022/08/27 07:00:37;;;;;;;9.77;8.23;;;22.30;99.90;;;;;;5077333;28;20029;-72
2022/08/27 07:03:04;;;;;;;11.45;8.80;;;22.30;99.90;;;;;;5066799;28;20048;-72
2022/08/27 07:05:31;;;;;;;10.73;9.02;;;22.20;99.90;;;;;;5079158;28;20016;-72
2022/08/27 07:07:58;;;;;;;10.10;8.95;;;22.30;99.90;;;;;;5074763;28;20675;-72
2022/08/27 07:10:24;;;;;;;10.32;8.70;;;22.30;99.90;;;;;;5071614;28;20029;-72
2022/08/27 07:12:50;;;;;;;9.40;8.50;;;22.30;99.90;;;;;;5073301;28;20032;-71
2022/08/27 07:15:16;;;;;;;12.13;9.32;;;22.30;99.90;;;;;;5067174;28;20781;-71
2022/08/27 07:17:43;;;;;;;9.63;8.52;;;22.30;99.90;;;;;;5063070;28;20132;-72
2022/08/27 07:20:15;;;;;;;11.02;9.18;;;22.30;99.90;;;;;;5063576;28;20024;-72
2022/08/27 07:22:42;;;;;;;9.98;8.98;;;22.30;99.90;;;;;;5074874;28;20107;-71
2022/08/27 07:25:12;;;;;;;9.77;7.97;;;22.30;99.90;;;;;;5069599;28;20573;-72
2022/08/27 07:27:38;;;;;;;14.90;10.55;;;22.40;99.90;;;;;;5071627;28;20028;-72
2022/08/27 07:30:08;;;;;;;10.57;9.35;;;22.40;99.90;;;;;;5065473;28;20098;-72
2022/08/27 07:32:34;;;;;;;10.23;8.63;;;22.40;99.90;;;;;;5065402;28;20028;-72
2022/08/27 07:34:59;;;;;;;12.52;9.45;;;22.50;99.90;;;;;;5070036;28;20549;-71
2022/08/27 07:37:25;;;;;;;9.55;8.55;;;22.50;99.90;;;;;;5063913;28;20032;-72
2022/08/27 07:39:51;;;;;;;12.50;9.75;;;22.60;99.90;;;;;;5064173;28;20381;-72
2022/08/27 07:45:01;;;;;;;13.50;9.20;;;22.60;99.90;;;;;;5074601;28;20040;-72
2022/08/27 07:47:27;;;;;;;11.90;9.82;;;22.70;99.90;;;;;;5070106;28;20057;-72
2022/08/27 07:49:52;;;;;;;12.02;8.45;;;22.60;99.90;;;;;;5066564;28;20065;-72
2022/08/27 07:52:18;;;;;;;10.52;8.95;;;22.70;99.90;;;;;;5066479;28;20020;-72
2022/08/27 07:54:44;;;;;;;10.93;8.50;;;22.70;99.90;;;;;;5068302;28;20079;-72
2022/08/27 07:57:10;;;;;;;9.95;8.90;;;22.70;99.90;;;;;;5063518;28;20024;-72
2022/08/27 07:59:36;;;;;;;16.27;9.73;;;22.70;99.90;;;;;;5070330;28;20028;-72
2022/08/27 08:02:03;;;;;;;11.13;9.57;;;22.80;99.90;;;;;;5068842;28;20044;-71
2022/08/27 08:04:29;;;;;;;12.15;9.60;;;22.80;99.90;;;;;;5070732;28;20614;-72
2022/08/27 08:06:55;;;;;;;14.40;9.80;;;22.80;99.90;;;;;;5065292;28;20028;-72
2022/08/27 08:09:22;;;;;;;10.35;9.25;;;22.90;99.90;;;;;;5067623;28;20153;-72
2022/08/27 08:11:50;;;;;;;10.55;8.32;;;22.90;99.90;;;;;;5064497;28;20564;-72
2022/08/27 08:14:16;;;;;;;11.32;9.35;;;22.80;99.90;;;;;;5066766;28;20036;-72
2022/08/27 08:16:42;;;;;;;10.63;8.40;;;22.90;99.90;;;;;;5062275;28;20037;-72
2022/08/27 08:19:08;;;;;;;12.10;9.20;;;22.80;99.90;;;;;;5068582;28;20039;-72
2022/08/27 08:21:35;;;;;;;12.35;9.73;;;22.90;99.90;;;;;;5079392;28;20114;-72
2022/08/27 08:24:01;;;;;;;11.32;9.32;;;22.90;99.90;;;;;;5067344;28;20032;-72
2022/08/27 08:26:27;;;;;;;11.05;8.73;;;22.80;99.90;;;;;;5068291;28;20625;-72
2022/08/27 08:28:54;;;;;;;12.90;10.23;;;22.80;99.90;;;;;;5065155;28;20074;-72
2022/08/27 08:31:20;;;;;;;11.05;9.00;;;22.80;99.90;;;;;;5064998;28;20469;-72
2022/08/27 08:33:48;;;;;;;11.15;9.95;;;22.80;99.90;;;;;;5065640;28;20435;-72
2022/08/27 08:36:15;;;;;;;13.98;9.73;;;22.80;99.90;;;;;;5070904;28;20041;-72
2022/08/27 08:38:43;;;;;;;11.02;9.00;;;22.90;99.90;;;;;;5077940;28;20081;-72
2022/08/27 08:41:21;;;;;;;12.40;9.55;;;22.90;99.90;;;;;;5071010;28;20047;-72
2022/08/27 08:43:50;;;;;;;12.02;9.13;;;22.90;99.90;;;;;;5076101;28;20032;-72
2022/08/27 08:46:32;;;;;;;13.18;9.40;;;23.00;99.90;;;;;;5066540;28;20519;-72
2022/08/27 08:49:04;;;;;;;10.23;8.52;;;23.00;99.90;;;;;;5064526;28;20082;-72
2022/08/27 08:51:39;;;;;;;10.75;8.93;;;23.00;99.80;;;;;;5062283;28;20035;-72
2022/08/27 08:54:12;;;;;;;11.20;9.13;;;22.90;99.90;;;;;;5074779;28;20032;-72
2022/08/27 08:56:50;;;;;;;11.40;8.73;;;22.90;99.90;;;;;;5069024;28;20039;-72
2022/08/27 08:59:27;;;;;;;11.90;8.82;;;22.90;99.90;;;;;;5079611;28;20047;-72
2022/08/27 09:01:53;;;;;;;12.95;8.50;;;22.90;99.90;;;;;;5072511;28;20032;-71
2022/08/27 09:04:22;;;;;;;10.68;8.48;;;22.90;99.90;;;;;;5073926;28;20028;-72
2022/08/27 09:07:15;;;;;;;13.52;7.85;;;22.90;99.90;;;;;;5076836;28;20036;-72
2022/08/27 09:09:58;;;;;;;11.70;7.72;;;22.90;99.90;;;;;;5076335;28;20040;-72
2022/08/27 09:12:31;;;;;;;8.65;7.85;;;22.90;99.90;;;;;;5072424;28;20028;-71
2022/08/27 09:15:03;;;;;;;8.82;7.93;;;22.90;99.90;;;;;;5071432;28;20094;-71
2022/08/27 09:17:29;;;;;;;10.70;8.20;;;23.00;99.90;;;;;;5071852;28;20036;-72
2022/08/27 09:19:55;;;;;;;11.55;8.43;;;23.10;99.90;;;;;;5067563;28;20145;-72
2022/08/27 09:22:23;;;;;;;9.05;8.15;;;23.10;99.90;;;;;;5065522;28;20032;-72
2022/08/27 09:24:54;;;;;;;9.73;8.27;;;23.20;99.80;;;;;;5064080;28;20376;-72
2022/08/27 09:27:21;;;;;;;10.65;8.55;;;23.20;99.90;;;;;;5063970;28;20101;-72
2022/08/27 09:29:53;;;;;;;12.65;8.32;;;23.20;99.90;;;;;;5069117;28;20024;-72
2022/08/27 09:32:27;;;;;;;9.55;8.55;;;23.20;99.90;;;;;;5060753;28;20037;-72
2022/08/27 09:35:03;;;;;;;9.05;8.15;;;23.20;99.90;;;;;;5067883;28;20047;-72
2022/08/27 09:37:31;;;;;;;10.77;8.45;;;23.20;99.80;;;;;;5078123;28;20031;-72
2022/08/27 09:40:08;;;;;;;15.65;11.25;;;23.10;99.90;;;;;;5066602;28;20040;-72
2022/08/27 09:42:51;;;;;;;13.80;11.32;;;23.10;99.90;;;;;;5063704;28;20490;-72
2022/08/27 09:45:28;;;;;;;12.45;9.98;;;23.20;99.80;;;;;;5066130;28;20048;-72
2022/08/27 09:48:06;;;;;;;14.05;10.95;;;23.10;99.70;;;;;;5051169;28;20036;-72
2022/08/27 09:50:43;;;;;;;16.23;10.35;;;23.20;99.70;;;;;;5066165;28;20052;-71
2022/08/27 09:53:24;;;;;;;14.20;10.10;;;23.20;99.80;;;;;;5066057;28;20488;-71
2022/08/27 09:55:58;;;;;;;15.43;10.20;;;23.30;99.80;;;;;;5082033;28;20032;-72
2022/08/27 09:58:28;;;;;;;14.20;10.18;;;23.30;99.80;;;;;;5069148;28;20118;-72
2022/08/27 10:01:14;;;;;;;17.10;10.75;;;23.40;99.90;;;;;;5068185;28;20036;-72
2022/08/27 10:03:41;;;;;;;14.48;10.93;;;23.40;99.80;;;;;;5074755;28;20167;-72
2022/08/27 10:06:08;;;;;;;14.10;9.85;;;23.40;99.70;;;;;;5062110;28;20115;-72
2022/08/27 10:08:47;;;;;;;16.75;10.82;;;23.40;99.80;;;;;;5062485;28;20035;-71
2022/08/27 10:11:34;;;;;;;13.82;11.15;;;23.40;99.80;;;;;;5065585;28;20117;-72
2022/08/27 10:14:13;;;;;;;15.43;12.07;;;23.40;99.90;;;;;;5068270;28;20036;-72
2022/08/27 10:16:57;;;;;;;22.58;12.55;;;23.40;99.90;;;;;;5066656;28;20517;-72
2022/08/27 10:19:38;;;;;;;19.55;11.52;;;23.40;99.90;;;;;;5066554;28;20044;-72
2022/08/27 10:22:31;;;;;;;15.68;11.18;;;23.50;99.60;;;;;;5062801;28;20064;-72
2022/08/27 10:25:21;;;;;;;15.23;12.07;;;23.50;99.60;;;;;;5068256;28;20236;-71
2022/08/27 10:28:04;;;;;;;15.43;10.60;;;23.60;99.70;;;;;;5076634;28;20114;-72
2022/08/27 10:30:50;;;;;;;16.52;11.45;;;23.70;99.70;;;;;;5072044;28;20089;-72
2022/08/27 10:33:23;;;;;;;11.68;9.52;;;23.90;99.70;;;;;;5072561;28;20123;-72
2022/08/27 10:36:15;;;;;;;12.50;10.10;;;24.10;99.60;;;;;;5071096;28;20044;-72
2022/08/27 10:39:28;;;;;;;13.70;10.18;;;24.30;99.30;;;;;;5076214;28;20040;-72
2022/08/27 10:42:09;;;;;;;13.57;9.80;;;24.50;98.70;;;;;;5045912;28;20044;-72
2022/08/27 10:44:49;;;;;;;11.95;9.77;;;24.60;98.50;;;;;;5076325;28;20028;-72
2022/08/27 10:47:53;;;;;;;14.75;10.95;;;24.70;98.20;;;;;;5067261;28;20028;-72
2022/08/27 10:50:27;;;;;;;12.93;11.50;;;24.80;98.00;;;;;;5046988;28;20098;-71
2022/08/27 10:52:55;;;;;;;14.88;10.13;;;24.90;97.60;;;;;;5070865;28;20040;-72
2022/08/27 10:55:41;;;;;;;12.73;9.60;;;25.00;97.10;;;;;;5071542;28;20060;-72
2022/08/27 10:58:38;;;;;;;;;;;25.10;96.70;;;;;;5068428;28;20507;-72
2022/08/27 11:01:15;;;;;;;13.40;8.88;;;25.10;95.10;;;;;;5067119;28;19933;-72
2022/08/27 11:03:43;;;;;;;11.63;8.48;;;25.20;96.00;;;;;;5072582;28;20066;-71
2022/08/27 11:06:47;;;;;;;11.98;8.52;;;25.20;96.00;;;;;;5063226;28;20036;-72
2022/08/27 11:10:01;;;;;;;13.48;8.25;;;25.20;96.20;;;;;;5077273;28;20432;-72
2022/08/27 11:12:34;;;;;;;15.20;8.60;;;25.30;96.40;;;;;;5065279;28;20059;-72
2022/08/27 11:15:20;;;;;;;10.70;8.00;;;25.40;96.10;;;;;;5069838;28;20043;-72
2022/08/27 11:18:24;;;;;;;8.20;6.97;;;25.30;95.60;;;;;;5066142;28;20131;-72
2022/08/27 11:21:12;;;;;;;9.55;6.78;;;25.30;94.10;;;;;;5069444;28;20047;-71
2022/08/27 11:24:14;;;;;;;7.40;6.10;;;25.30;94.40;;;;;;5064896;28;20025;-72
2022/08/27 11:26:41;;;;;;;8.15;6.13;;;25.30;94.60;;;;;;5060540;28;20376;-72
2022/08/27 11:29:23;;;;;;;7.68;5.93;;;25.20;95.00;;;;;;5071689;28;20110;-72
2022/08/27 11:31:56;;;;;;;8.23;6.43;;;25.20;95.30;;;;;;5071271;28;20028;-72
2022/08/27 11:35:15;;;;;;;7.80;6.30;;;25.20;95.60;;;;;;5071945;28;20052;-72
2022/08/27 11:38:05;;;;;;;7.95;6.22;;;25.20;95.70;;;;;;5062422;28;20817;-72
2022/08/27 11:40:57;;;;;;;8.05;6.20;;;25.10;95.00;;;;;;5067393;28;20024;-72
2022/08/27 11:43:27;;;;;;;6.80;5.53;;;25.00;95.20;;;;;;5064873;28;20037;-71
2022/08/27 11:46:02;;;;;;;7.97;5.85;;;24.90;95.70;;;;;;5066697;28;20242;-72
2022/08/27 11:48:35;;;;;;;9.50;5.50;;;25.00;96.00;;;;;;5077424;28;20872;-72
2022/08/27 11:51:09;;;;;;;7.22;5.20;;;25.10;95.80;;;;;;5068980;28;20507;-71
2022/08/27 11:53:37;;;;;;;6.40;5.10;;;25.20;95.50;;;;;;5067205;28;20040;-72
2022/08/27 11:56:15;;;;;;;10.70;5.88;;;25.30;95.70;;;;;;5067144;28;20119;-71
2022/08/27 11:58:43;;;;;;;7.07;5.15;;;25.50;95.80;;;;;;5071458;28;20024;-71
2022/08/27 12:01:27;;;;;;;8.63;5.13;;;25.60;94.00;;;;;;5064320;28;20085;-72
2022/08/27 12:04:06;;;;;;;8.50;5.55;;;25.60;93.60;;;;;;5062597;28;20543;-71
2022/08/27 12:06:44;;;;;;;5.63;4.68;;;25.60;93.80;;;;;;5069526;28;20040;-72
2022/08/27 12:09:22;;;;;;;6.43;4.93;;;25.60;94.00;;;;;;5068727;28;20032;-72
2022/08/27 12:12:14;;;;;;;6.13;4.55;;;25.60;94.20;;;;;;5067051;28;20036;-72
2022/08/27 12:15:03;;;;;;;5.65;4.93;;;25.60;94.20;;;;;;5074908;28;20044;-71
2022/08/27 12:17:36;;;;;;;6.07;5.07;;;25.50;93.70;;;;;;5065607;28;20039;-72
2022/08/27 12:20:22;;;;;;;9.35;4.82;;;25.50;93.90;;;;;;5063717;28;20135;-72
2022/08/27 12:25:59;;;;;;;5.35;4.53;;;25.40;93.20;;;;;;5072053;28;20035;-72
2022/08/27 12:28:26;;;;;;;7.13;4.43;;;25.30;93.40;;;;;;5072338;28;20024;-71
2022/08/27 12:30:53;;;;;;;8.32;4.30;;;25.30;93.70;;;;;;5073022;28;20556;-71
2022/08/27 12:33:34;;;;;;;9.00;4.78;;;25.30;93.40;;;;;;5070054;28;20032;-72
2022/08/27 12:36:16;;;;;;;9.10;5.05;;;25.30;93.40;;;;;;5071614;28;20035;-72
2022/08/27 12:38:54;;;;;;;9.52;5.07;;;25.30;94.10;;;;;;5065153;28;20047;-71
2022/08/27 12:41:46;;;;;;;7.80;4.75;;;25.40;94.50;;;;;;5064589;28;20036;-72
2022/08/27 12:44:22;;;;;;;9.40;5.38;;;25.40;93.80;;;;;;5070677;28;20087;-72
2022/08/27 12:47:02;;;;;;;9.23;6.00;;;25.50;93.80;;;;;;5068930;28;20021;-71
2022/08/27 12:49:36;;;;;;;19.40;10.05;;;25.50;93.70;;;;;;5079422;28;20084;-71
2022/08/27 12:52:16;;;;;;;21.92;12.02;;;25.50;93.30;;;;;;5067893;28;20029;-72
2022/08/27 12:54:49;;;;;;;14.45;10.30;;;25.50;93.30;;;;;;5064996;28;20044;-72
2022/08/27 12:57:37;;;;;;;11.50;7.80;;;25.40;93.50;;;;;;5063020;28;20450;-72
2022/08/27 13:00:14;;;;;;;26.25;13.35;;;25.40;93.60;;;;;;5066170;28;20037;-71
2022/08/27 13:03:11;;;;;;;17.35;10.70;;;25.40;93.70;;;;;;5076056;28;20067;-71